sensor_id;sensor_type;location;lat;lon;timestamp;P1;durP1;ratioP1;P2;durP2;ratioP2
6821;SDS011;3449;48.728;8.968;2023-03-03T00:00:12;50.93;;;21.03;;
6821;SDS011;3449;48.728;8.968;2023-03-03T00:02:40;59.53;;;22.77;;
6821;SDS011;3449;48.728;8.968;2023-03-03T00:05:07;54.13;;;21.47;;
6821;SDS011;3449;48.728;8.968;2023-03-03T00:07:34;44.33;;;19.80;;
6821;SDS011;3449;48.728;8.968;2023-03-03T00:10:01;55.77;;;21.07;;
6821;SDS011;3449;48.728;8.968;2023-03-03T00:12:29;53.27;;;21.80;;
6821;SDS011;3449;48.728;8.968;2023-03-03T00:14:56;51.30;;;20.53;;
6821;SDS011;3449;48.728;8.968;2023-03-03T00:17:25;56.53;;;21.47;;
6821;SDS011;3449;48.728;8.968;2023-03-03T00:19:52;60.87;;;23.10;;
6821;SDS011;3449;48.728;8.968;2023-03-03T00:22:23;54.47;;;22.83;;
6821;SDS011;3449;48.728;8.968;2023-03-03T00:24:54;52.43;;;20.70;;
6821;SDS011;3449;48.728;8.968;2023-03-03T00:27:26;56.27;;;23.40;;
6821;SDS011;3449;48.728;8.968;2023-03-03T00:29:55;48.93;;;20.30;;
6821;SDS011;3449;48.728;8.968;2023-03-03T00:32:25;54.83;;;21.77;;
6821;SDS011;3449;48.728;8.968;2023-03-03T00:34:55;44.83;;;19.37;;
6821;SDS011;3449;48.728;8.968;2023-03-03T00:37:28;54.93;;;21.73;;
6821;SDS011;3449;48.728;8.968;2023-03-03T00:39:58;58.00;;;21.03;;
6821;SDS011;3449;48.728;8.968;2023-03-03T00:42:34;41.90;;;19.60;;
6821;SDS011;3449;48.728;8.968;2023-03-03T00:45:04;54.97;;;22.30;;
6821;SDS011;3449;48.728;8.968;2023-03-03T00:47:54;59.10;;;21.83;;
6821;SDS011;3449;48.728;8.968;2023-03-03T00:50:26;52.07;;;22.47;;
6821;SDS011;3449;48.728;8.968;2023-03-03T00:52:59;42.97;;;20.73;;
6821;SDS011;3449;48.728;8.968;2023-03-03T00:55:29;56.53;;;21.93;;
6821;SDS011;3449;48.728;8.968;2023-03-03T00:57:56;45.30;;;19.27;;
6821;SDS011;3449;48.728;8.968;2023-03-03T01:00:23;56.03;;;22.80;;
6821;SDS011;3449;48.728;8.968;2023-03-03T01:02:50;59.27;;;21.27;;
6821;SDS011;3449;48.728;8.968;2023-03-03T01:05:18;60.00;;;22.43;;
6821;SDS011;3449;48.728;8.968;2023-03-03T01:07:46;50.50;;;21.87;;
6821;SDS011;3449;48.728;8.968;2023-03-03T01:10:13;54.80;;;22.40;;
6821;SDS011;3449;48.728;8.968;2023-03-03T01:12:39;57.10;;;22.27;;
6821;SDS011;3449;48.728;8.968;2023-03-03T01:15:07;59.73;;;24.50;;
6821;SDS011;3449;48.728;8.968;2023-03-03T01:17:36;47.17;;;21.00;;
6821;SDS011;3449;48.728;8.968;2023-03-03T01:20:04;49.23;;;20.63;;
6821;SDS011;3449;48.728;8.968;2023-03-03T01:22:33;47.97;;;20.63;;
6821;SDS011;3449;48.728;8.968;2023-03-03T01:25:00;49.40;;;21.50;;
6821;SDS011;3449;48.728;8.968;2023-03-03T01:27:28;51.70;;;22.03;;
6821;SDS011;3449;48.728;8.968;2023-03-03T01:29:55;59.70;;;23.10;;
6821;SDS011;3449;48.728;8.968;2023-03-03T01:32:23;52.27;;;20.50;;
6821;SDS011;3449;48.728;8.968;2023-03-03T01:34:50;58.27;;;21.83;;
6821;SDS011;3449;48.728;8.968;2023-03-03T01:37:17;49.97;;;22.00;;
6821;SDS011;3449;48.728;8.968;2023-03-03T01:39:48;51.67;;;21.80;;
6821;SDS011;3449;48.728;8.968;2023-03-03T01:42:15;54.30;;;22.00;;
6821;SDS011;3449;48.728;8.968;2023-03-03T01:44:42;56.10;;;20.60;;
6821;SDS011;3449;48.728;8.968;2023-03-03T01:47:10;59.80;;;23.70;;
6821;SDS011;3449;48.728;8.968;2023-03-03T01:49:39;58.17;;;22.23;;
6821;SDS011;3449;48.728;8.968;2023-03-03T01:52:10;50.93;;;21.37;;
6821;SDS011;3449;48.728;8.968;2023-03-03T01:54:41;57.27;;;23.07;;
6821;SDS011;3449;48.728;8.968;2023-03-03T01:57:15;55.20;;;22.70;;
6821;SDS011;3449;48.728;8.968;2023-03-03T01:59:47;55.80;;;21.70;;
6821;SDS011;3449;48.728;8.968;2023-03-03T02:02:16;58.93;;;20.87;;
6821;SDS011;3449;48.728;8.968;2023-03-03T02:04:43;52.03;;;20.80;;
6821;SDS011;3449;48.728;8.968;2023-03-03T02:07:10;52.33;;;22.77;;
6821;SDS011;3449;48.728;8.968;2023-03-03T02:09:42;52.73;;;21.90;;
6821;SDS011;3449;48.728;8.968;2023-03-03T02:12:17;51.30;;;21.00;;
6821;SDS011;3449;48.728;8.968;2023-03-03T02:14:45;67.23;;;23.10;;
6821;SDS011;3449;48.728;8.968;2023-03-03T02:17:12;48.30;;;20.77;;
6821;SDS011;3449;48.728;8.968;2023-03-03T02:19:41;47.87;;;20.80;;
6821;SDS011;3449;48.728;8.968;2023-03-03T02:22:16;54.73;;;21.90;;
6821;SDS011;3449;48.728;8.968;2023-03-03T02:24:49;58.90;;;21.37;;
6821;SDS011;3449;48.728;8.968;2023-03-03T02:27:22;63.57;;;21.20;;
6821;SDS011;3449;48.728;8.968;2023-03-03T02:29:49;47.57;;;21.70;;
6821;SDS011;3449;48.728;8.968;2023-03-03T02:32:16;54.50;;;21.40;;
6821;SDS011;3449;48.728;8.968;2023-03-03T02:34:44;50.37;;;20.77;;
6821;SDS011;3449;48.728;8.968;2023-03-03T02:37:12;56.30;;;20.23;;
6821;SDS011;3449;48.728;8.968;2023-03-03T02:39:39;48.70;;;22.50;;
6821;SDS011;3449;48.728;8.968;2023-03-03T02:42:07;58.63;;;22.70;;
6821;SDS011;3449;48.728;8.968;2023-03-03T02:44:39;56.00;;;22.53;;
6821;SDS011;3449;48.728;8.968;2023-03-03T02:47:06;53.10;;;20.40;;
6821;SDS011;3449;48.728;8.968;2023-03-03T02:49:34;73.47;;;27.83;;
6821;SDS011;3449;48.728;8.968;2023-03-03T02:52:02;83.77;;;34.80;;
6821;SDS011;3449;48.728;8.968;2023-03-03T02:54:31;122.27;;;40.70;;
6821;SDS011;3449;48.728;8.968;2023-03-03T02:56:58;91.67;;;35.70;;
6821;SDS011;3449;48.728;8.968;2023-03-03T02:59:26;65.43;;;27.73;;
6821;SDS011;3449;48.728;8.968;2023-03-03T03:01:54;78.30;;;29.57;;
6821;SDS011;3449;48.728;8.968;2023-03-03T03:04:21;74.80;;;27.47;;
6821;SDS011;3449;48.728;8.968;2023-03-03T03:06:50;89.67;;;29.47;;
6821;SDS011;3449;48.728;8.968;2023-03-03T03:09:18;66.30;;;27.27;;
6821;SDS011;3449;48.728;8.968;2023-03-03T03:11:46;60.37;;;24.17;;
6821;SDS011;3449;48.728;8.968;2023-03-03T03:14:13;59.97;;;23.50;;
6821;SDS011;3449;48.728;8.968;2023-03-03T03:16:41;49.77;;;22.10;;
6821;SDS011;3449;48.728;8.968;2023-03-03T03:19:09;51.50;;;20.03;;
6821;SDS011;3449;48.728;8.968;2023-03-03T03:21:36;52.53;;;21.23;;
6821;SDS011;3449;48.728;8.968;2023-03-03T03:24:03;52.30;;;22.40;;
6821;SDS011;3449;48.728;8.968;2023-03-03T03:26:30;66.23;;;22.97;;
6821;SDS011;3449;48.728;8.968;2023-03-03T03:28:57;56.07;;;20.77;;
6821;SDS011;3449;48.728;8.968;2023-03-03T03:31:24;53.17;;;21.47;;
6821;SDS011;3449;48.728;8.968;2023-03-03T03:33:51;62.43;;;24.30;;
6821;SDS011;3449;48.728;8.968;2023-03-03T03:36:19;59.63;;;23.20;;
6821;SDS011;3449;48.728;8.968;2023-03-03T03:38:46;61.53;;;22.27;;
6821;SDS011;3449;48.728;8.968;2023-03-03T03:41:13;60.33;;;23.03;;
6821;SDS011;3449;48.728;8.968;2023-03-03T03:43:40;54.33;;;22.80;;
6821;SDS011;3449;48.728;8.968;2023-03-03T03:46:07;54.07;;;21.70;;
6821;SDS011;3449;48.728;8.968;2023-03-03T03:48:34;59.00;;;23.40;;
6821;SDS011;3449;48.728;8.968;2023-03-03T03:51:01;56.10;;;24.40;;
6821;SDS011;3449;48.728;8.968;2023-03-03T03:53:30;56.00;;;22.07;;
6821;SDS011;3449;48.728;8.968;2023-03-03T03:55:57;51.37;;;23.33;;
6821;SDS011;3449;48.728;8.968;2023-03-03T03:58:24;49.80;;;21.23;;
6821;SDS011;3449;48.728;8.968;2023-03-03T04:00:50;52.73;;;22.70;;
6821;SDS011;3449;48.728;8.968;2023-03-03T04:03:17;50.83;;;22.17;;
6821;SDS011;3449;48.728;8.968;2023-03-03T04:05:44;49.47;;;20.97;;
6821;SDS011;3449;48.728;8.968;2023-03-03T04:08:11;52.17;;;21.53;;
6821;SDS011;3449;48.728;8.968;2023-03-03T04:10:40;54.40;;;21.53;;
6821;SDS011;3449;48.728;8.968;2023-03-03T04:13:07;52.83;;;22.20;;
6821;SDS011;3449;48.728;8.968;2023-03-03T04:15:33;47.87;;;20.27;;
6821;SDS011;3449;48.728;8.968;2023-03-03T04:18:00;56.23;;;21.47;;
6821;SDS011;3449;48.728;8.968;2023-03-03T04:20:27;50.43;;;20.53;;
6821;SDS011;3449;48.728;8.968;2023-03-03T04:22:54;50.93;;;21.63;;
6821;SDS011;3449;48.728;8.968;2023-03-03T04:25:22;54.97;;;20.73;;
6821;SDS011;3449;48.728;8.968;2023-03-03T04:27:50;54.27;;;22.87;;
6821;SDS011;3449;48.728;8.968;2023-03-03T04:30:18;54.57;;;23.23;;
6821;SDS011;3449;48.728;8.968;2023-03-03T04:32:45;50.63;;;20.50;;
6821;SDS011;3449;48.728;8.968;2023-03-03T04:35:13;82.30;;;24.07;;
6821;SDS011;3449;48.728;8.968;2023-03-03T04:37:40;50.03;;;22.00;;
6821;SDS011;3449;48.728;8.968;2023-03-03T04:40:08;47.93;;;21.63;;
6821;SDS011;3449;48.728;8.968;2023-03-03T04:42:36;50.57;;;22.93;;
6821;SDS011;3449;48.728;8.968;2023-03-03T04:45:05;48.90;;;21.13;;
6821;SDS011;3449;48.728;8.968;2023-03-03T04:47:32;46.27;;;20.07;;
6821;SDS011;3449;48.728;8.968;2023-03-03T04:49:59;51.03;;;20.40;;
6821;SDS011;3449;48.728;8.968;2023-03-03T04:52:26;55.90;;;21.10;;
6821;SDS011;3449;48.728;8.968;2023-03-03T04:54:53;54.57;;;22.80;;
6821;SDS011;3449;48.728;8.968;2023-03-03T04:57:20;50.00;;;22.27;;
6821;SDS011;3449;48.728;8.968;2023-03-03T04:59:47;58.90;;;22.90;;
6821;SDS011;3449;48.728;8.968;2023-03-03T05:02:15;55.37;;;21.83;;
6821;SDS011;3449;48.728;8.968;2023-03-03T05:04:42;55.90;;;23.30;;
6821;SDS011;3449;48.728;8.968;2023-03-03T05:07:09;51.17;;;21.37;;
6821;SDS011;3449;48.728;8.968;2023-03-03T05:09:36;48.90;;;20.30;;
6821;SDS011;3449;48.728;8.968;2023-03-03T05:12:03;49.87;;;20.60;;
6821;SDS011;3449;48.728;8.968;2023-03-03T05:14:30;54.93;;;21.50;;
6821;SDS011;3449;48.728;8.968;2023-03-03T05:16:57;59.33;;;24.00;;
6821;SDS011;3449;48.728;8.968;2023-03-03T05:19:26;51.83;;;21.03;;
6821;SDS011;3449;48.728;8.968;2023-03-03T05:21:52;50.67;;;21.83;;
6821;SDS011;3449;48.728;8.968;2023-03-03T05:24:19;49.93;;;21.70;;
6821;SDS011;3449;48.728;8.968;2023-03-03T05:26:46;75.33;;;22.77;;
6821;SDS011;3449;48.728;8.968;2023-03-03T05:29:13;52.90;;;22.50;;
6821;SDS011;3449;48.728;8.968;2023-03-03T05:31:40;55.70;;;22.50;;
6821;SDS011;3449;48.728;8.968;2023-03-03T05:34:08;53.40;;;23.40;;
6821;SDS011;3449;48.728;8.968;2023-03-03T05:36:36;44.73;;;21.07;;
6821;SDS011;3449;48.728;8.968;2023-03-03T05:39:03;51.13;;;21.30;;
6821;SDS011;3449;48.728;8.968;2023-03-03T05:41:30;53.20;;;20.40;;
6821;SDS011;3449;48.728;8.968;2023-03-03T05:43:56;51.13;;;20.33;;
6821;SDS011;3449;48.728;8.968;2023-03-03T05:46:23;53.00;;;22.53;;
6821;SDS011;3449;48.728;8.968;2023-03-03T05:48:50;55.07;;;21.57;;
6821;SDS011;3449;48.728;8.968;2023-03-03T05:51:17;54.47;;;23.27;;
6821;SDS011;3449;48.728;8.968;2023-03-03T05:53:45;45.03;;;20.03;;
6821;SDS011;3449;48.728;8.968;2023-03-03T05:56:12;54.23;;;21.73;;
6821;SDS011;3449;48.728;8.968;2023-03-03T05:58:39;51.07;;;21.80;;
6821;SDS011;3449;48.728;8.968;2023-03-03T06:01:06;58.83;;;23.30;;
6821;SDS011;3449;48.728;8.968;2023-03-03T06:03:33;50.20;;;22.60;;
6821;SDS011;3449;48.728;8.968;2023-03-03T06:06:00;65.73;;;23.57;;
6821;SDS011;3449;48.728;8.968;2023-03-03T06:08:26;61.33;;;24.10;;
6821;SDS011;3449;48.728;8.968;2023-03-03T06:10:56;53.10;;;23.60;;
6821;SDS011;3449;48.728;8.968;2023-03-03T06:13:22;54.83;;;21.87;;
6821;SDS011;3449;48.728;8.968;2023-03-03T06:15:49;63.40;;;24.17;;
6821;SDS011;3449;48.728;8.968;2023-03-03T06:18:16;62.80;;;21.70;;
6821;SDS011;3449;48.728;8.968;2023-03-03T06:20:43;55.07;;;22.67;;
6821;SDS011;3449;48.728;8.968;2023-03-03T06:23:10;56.03;;;23.23;;
6821;SDS011;3449;48.728;8.968;2023-03-03T06:25:37;58.80;;;21.90;;
6821;SDS011;3449;48.728;8.968;2023-03-03T06:28:06;62.33;;;24.83;;
6821;SDS011;3449;48.728;8.968;2023-03-03T06:30:33;58.93;;;23.30;;
6821;SDS011;3449;48.728;8.968;2023-03-03T06:33:00;56.73;;;22.03;;
6821;SDS011;3449;48.728;8.968;2023-03-03T06:35:27;59.77;;;21.30;;
6821;SDS011;3449;48.728;8.968;2023-03-03T06:37:53;53.77;;;22.47;;
6821;SDS011;3449;48.728;8.968;2023-03-03T06:40:20;49.90;;;24.10;;
6821;SDS011;3449;48.728;8.968;2023-03-03T06:42:47;54.37;;;22.23;;
6821;SDS011;3449;48.728;8.968;2023-03-03T06:45:16;59.60;;;22.13;;
6821;SDS011;3449;48.728;8.968;2023-03-03T06:47:43;55.50;;;23.70;;
6821;SDS011;3449;48.728;8.968;2023-03-03T06:50:10;65.97;;;24.57;;
6821;SDS011;3449;48.728;8.968;2023-03-03T06:52:37;55.93;;;23.40;;
6821;SDS011;3449;48.728;8.968;2023-03-03T06:55:09;51.93;;;22.50;;
6821;SDS011;3449;48.728;8.968;2023-03-03T06:57:38;49.17;;;21.63;;
6821;SDS011;3449;48.728;8.968;2023-03-03T07:00:12;52.33;;;22.00;;
6821;SDS011;3449;48.728;8.968;2023-03-03T07:02:47;46.50;;;19.93;;
6821;SDS011;3449;48.728;8.968;2023-03-03T07:05:22;54.40;;;22.27;;
6821;SDS011;3449;48.728;8.968;2023-03-03T07:07:51;59.43;;;23.10;;
6821;SDS011;3449;48.728;8.968;2023-03-03T07:10:21;55.53;;;23.50;;
6821;SDS011;3449;48.728;8.968;2023-03-03T07:12:49;48.33;;;21.37;;
6821;SDS011;3449;48.728;8.968;2023-03-03T07:15:17;55.60;;;21.30;;
6821;SDS011;3449;48.728;8.968;2023-03-03T07:17:48;58.80;;;23.10;;
6821;SDS011;3449;48.728;8.968;2023-03-03T07:20:19;57.13;;;23.73;;
6821;SDS011;3449;48.728;8.968;2023-03-03T07:22:47;61.90;;;22.60;;
6821;SDS011;3449;48.728;8.968;2023-03-03T07:25:19;61.33;;;24.30;;
6821;SDS011;3449;48.728;8.968;2023-03-03T07:27:50;55.83;;;21.80;;
6821;SDS011;3449;48.728;8.968;2023-03-03T07:30:23;47.93;;;21.03;;
6821;SDS011;3449;48.728;8.968;2023-03-03T07:32:53;61.73;;;23.20;;
6821;SDS011;3449;48.728;8.968;2023-03-03T07:35:25;60.57;;;23.20;;
6821;SDS011;3449;48.728;8.968;2023-03-03T07:38:00;53.50;;;22.57;;
6821;SDS011;3449;48.728;8.968;2023-03-03T07:40:30;57.47;;;22.83;;
6821;SDS011;3449;48.728;8.968;2023-03-03T07:43:12;51.10;;;22.07;;
6821;SDS011;3449;48.728;8.968;2023-03-03T07:45:53;54.33;;;23.70;;
6821;SDS011;3449;48.728;8.968;2023-03-03T07:48:25;56.80;;;21.60;;
6821;SDS011;3449;48.728;8.968;2023-03-03T07:50:57;57.97;;;22.43;;
6821;SDS011;3449;48.728;8.968;2023-03-03T07:53:29;64.13;;;24.50;;
6821;SDS011;3449;48.728;8.968;2023-03-03T07:56:01;74.23;;;22.90;;
6821;SDS011;3449;48.728;8.968;2023-03-03T07:58:32;68.37;;;24.17;;
6821;SDS011;3449;48.728;8.968;2023-03-03T08:03:55;67.60;;;24.93;;
6821;SDS011;3449;48.728;8.968;2023-03-03T08:06:36;59.43;;;24.10;;
6821;SDS011;3449;48.728;8.968;2023-03-03T08:15:15;69.93;;;24.50;;
6821;SDS011;3449;48.728;8.968;2023-03-03T08:17:44;58.73;;;22.40;;
6821;SDS011;3449;48.728;8.968;2023-03-03T08:23:15;55.50;;;22.80;;
6821;SDS011;3449;48.728;8.968;2023-03-03T08:25:43;53.73;;;22.80;;
6821;SDS011;3449;48.728;8.968;2023-03-03T08:28:10;60.23;;;23.97;;
6821;SDS011;3449;48.728;8.968;2023-03-03T08:30:38;54.33;;;21.60;;
6821;SDS011;3449;48.728;8.968;2023-03-03T08:33:05;48.80;;;22.70;;
6821;SDS011;3449;48.728;8.968;2023-03-03T08:35:32;53.40;;;22.17;;
6821;SDS011;3449;48.728;8.968;2023-03-03T08:38:00;58.00;;;22.90;;
6821;SDS011;3449;48.728;8.968;2023-03-03T08:40:27;53.80;;;22.00;;
6821;SDS011;3449;48.728;8.968;2023-03-03T08:42:55;53.80;;;21.70;;
6821;SDS011;3449;48.728;8.968;2023-03-03T08:45:23;50.23;;;21.50;;
6821;SDS011;3449;48.728;8.968;2023-03-03T08:47:50;66.57;;;21.93;;
6821;SDS011;3449;48.728;8.968;2023-03-03T08:50:18;54.27;;;22.33;;
6821;SDS011;3449;48.728;8.968;2023-03-03T08:52:45;51.13;;;20.90;;
6821;SDS011;3449;48.728;8.968;2023-03-03T08:55:13;51.93;;;21.03;;
6821;SDS011;3449;48.728;8.968;2023-03-03T08:57:40;53.00;;;21.33;;
6821;SDS011;3449;48.728;8.968;2023-03-03T09:00:08;49.73;;;21.00;;
6821;SDS011;3449;48.728;8.968;2023-03-03T09:02:37;50.27;;;21.90;;
6821;SDS011;3449;48.728;8.968;2023-03-03T09:05:05;47.47;;;20.30;;
6821;SDS011;3449;48.728;8.968;2023-03-03T09:07:32;44.77;;;18.10;;
6821;SDS011;3449;48.728;8.968;2023-03-03T09:09:59;42.47;;;19.67;;
6821;SDS011;3449;48.728;8.968;2023-03-03T09:12:29;48.43;;;20.87;;
6821;SDS011;3449;48.728;8.968;2023-03-03T09:14:59;41.77;;;18.33;;
6821;SDS011;3449;48.728;8.968;2023-03-03T09:17:37;42.03;;;19.13;;
6821;SDS011;3449;48.728;8.968;2023-03-03T09:20:10;39.73;;;18.20;;
6821;SDS011;3449;48.728;8.968;2023-03-03T09:22:57;42.33;;;19.77;;
6821;SDS011;3449;48.728;8.968;2023-03-03T09:25:27;47.37;;;19.97;;
6821;SDS011;3449;48.728;8.968;2023-03-03T09:27:59;54.97;;;20.77;;
6821;SDS011;3449;48.728;8.968;2023-03-03T09:30:34;41.40;;;18.10;;
6821;SDS011;3449;48.728;8.968;2023-03-03T09:33:16;45.23;;;19.30;;
6821;SDS011;3449;48.728;8.968;2023-03-03T09:35:50;48.33;;;21.03;;
6821;SDS011;3449;48.728;8.968;2023-03-03T09:38:24;40.47;;;18.17;;
6821;SDS011;3449;48.728;8.968;2023-03-03T09:43:51;40.27;;;18.57;;
6821;SDS011;3449;48.728;8.968;2023-03-03T09:46:32;47.50;;;20.00;;
6821;SDS011;3449;48.728;8.968;2023-03-03T09:49:13;44.73;;;20.80;;
6821;SDS011;3449;48.728;8.968;2023-03-03T09:54:45;46.07;;;19.67;;
6821;SDS011;3449;48.728;8.968;2023-03-03T09:57:22;44.90;;;21.23;;
6821;SDS011;3449;48.728;8.968;2023-03-03T10:02:56;44.53;;;19.40;;
6821;SDS011;3449;48.728;8.968;2023-03-03T10:05:47;44.20;;;19.67;;
6821;SDS011;3449;48.728;8.968;2023-03-03T10:08:26;37.40;;;18.10;;
6821;SDS011;3449;48.728;8.968;2023-03-03T10:13:55;43.57;;;17.77;;
6821;SDS011;3449;48.728;8.968;2023-03-03T10:19:26;44.27;;;18.80;;
6821;SDS011;3449;48.728;8.968;2023-03-03T10:22:06;39.40;;;17.07;;
6821;SDS011;3449;48.728;8.968;2023-03-03T10:24:52;36.00;;;16.93;;
6821;SDS011;3449;48.728;8.968;2023-03-03T10:27:38;38.70;;;18.37;;
6821;SDS011;3449;48.728;8.968;2023-03-03T10:30:16;36.17;;;17.90;;
6821;SDS011;3449;48.728;8.968;2023-03-03T10:32:55;39.63;;;16.77;;
6821;SDS011;3449;48.728;8.968;2023-03-03T10:35:29;38.37;;;16.60;;
6821;SDS011;3449;48.728;8.968;2023-03-03T10:38:17;41.33;;;18.10;;
6821;SDS011;3449;48.728;8.968;2023-03-03T10:40:56;39.33;;;18.00;;
6821;SDS011;3449;48.728;8.968;2023-03-03T10:46:35;38.53;;;18.03;;
6821;SDS011;3449;48.728;8.968;2023-03-03T10:49:21;40.83;;;17.63;;
6821;SDS011;3449;48.728;8.968;2023-03-03T10:52:03;38.10;;;16.67;;
6821;SDS011;3449;48.728;8.968;2023-03-03T10:54:50;33.83;;;16.80;;
6821;SDS011;3449;48.728;8.968;2023-03-03T10:57:30;32.90;;;16.53;;
6821;SDS011;3449;48.728;8.968;2023-03-03T11:00:07;41.10;;;16.27;;
6821;SDS011;3449;48.728;8.968;2023-03-03T11:02:47;38.23;;;18.20;;
6821;SDS011;3449;48.728;8.968;2023-03-03T11:05:35;40.50;;;18.73;;
6821;SDS011;3449;48.728;8.968;2023-03-03T11:08:08;36.03;;;17.27;;
6821;SDS011;3449;48.728;8.968;2023-03-03T11:10:45;40.33;;;17.17;;
6821;SDS011;3449;48.728;8.968;2023-03-03T11:13:18;42.90;;;18.43;;
6821;SDS011;3449;48.728;8.968;2023-03-03T11:15:54;38.07;;;18.97;;
6821;SDS011;3449;48.728;8.968;2023-03-03T11:18:32;35.10;;;17.70;;
6821;SDS011;3449;48.728;8.968;2023-03-03T11:21:10;40.00;;;17.80;;
6821;SDS011;3449;48.728;8.968;2023-03-03T11:24:10;49.10;;;18.47;;
6821;SDS011;3449;48.728;8.968;2023-03-03T11:26:54;39.30;;;17.87;;
6821;SDS011;3449;48.728;8.968;2023-03-03T11:29:38;36.23;;;17.93;;
6821;SDS011;3449;48.728;8.968;2023-03-03T11:32:30;39.23;;;17.70;;
6821;SDS011;3449;48.728;8.968;2023-03-03T11:35:06;39.97;;;17.37;;
6821;SDS011;3449;48.728;8.968;2023-03-03T11:37:47;33.97;;;18.20;;
6821;SDS011;3449;48.728;8.968;2023-03-03T11:40:28;37.47;;;17.47;;
6821;SDS011;3449;48.728;8.968;2023-03-03T11:43:00;44.43;;;18.83;;
6821;SDS011;3449;48.728;8.968;2023-03-03T11:45:37;34.33;;;17.63;;
6821;SDS011;3449;48.728;8.968;2023-03-03T11:48:07;46.23;;;16.53;;
6821;SDS011;3449;48.728;8.968;2023-03-03T11:50:44;34.83;;;17.67;;
6821;SDS011;3449;48.728;8.968;2023-03-03T11:53:24;39.33;;;19.03;;
6821;SDS011;3449;48.728;8.968;2023-03-03T11:55:58;33.67;;;17.70;;
6821;SDS011;3449;48.728;8.968;2023-03-03T11:58:30;37.73;;;16.30;;
6821;SDS011;3449;48.728;8.968;2023-03-03T12:01:06;40.30;;;16.40;;
6821;SDS011;3449;48.728;8.968;2023-03-03T12:03:40;41.03;;;18.40;;
6821;SDS011;3449;48.728;8.968;2023-03-03T12:06:16;31.40;;;17.40;;
6821;SDS011;3449;48.728;8.968;2023-03-03T12:11:57;38.53;;;16.43;;
6821;SDS011;3449;48.728;8.968;2023-03-03T12:14:38;31.90;;;16.37;;
6821;SDS011;3449;48.728;8.968;2023-03-03T12:17:20;40.60;;;17.57;;
6821;SDS011;3449;48.728;8.968;2023-03-03T12:20:05;32.80;;;16.40;;
6821;SDS011;3449;48.728;8.968;2023-03-03T12:22:39;40.90;;;15.80;;
6821;SDS011;3449;48.728;8.968;2023-03-03T12:25:24;32.23;;;15.90;;
6821;SDS011;3449;48.728;8.968;2023-03-03T12:28:02;32.93;;;15.13;;
6821;SDS011;3449;48.728;8.968;2023-03-03T12:30:37;32.37;;;15.87;;
6821;SDS011;3449;48.728;8.968;2023-03-03T12:33:26;40.93;;;16.43;;
6821;SDS011;3449;48.728;8.968;2023-03-03T12:36:05;34.27;;;15.20;;
6821;SDS011;3449;48.728;8.968;2023-03-03T12:38:44;31.13;;;15.67;;
6821;SDS011;3449;48.728;8.968;2023-03-03T12:41:17;35.07;;;16.20;;
6821;SDS011;3449;48.728;8.968;2023-03-03T12:43:55;44.03;;;17.07;;
6821;SDS011;3449;48.728;8.968;2023-03-03T12:46:30;30.97;;;14.73;;
6821;SDS011;3449;48.728;8.968;2023-03-03T12:49:03;28.97;;;13.40;;
6821;SDS011;3449;48.728;8.968;2023-03-03T12:51:33;38.00;;;16.90;;
6821;SDS011;3449;48.728;8.968;2023-03-03T12:54:09;29.43;;;14.67;;
6821;SDS011;3449;48.728;8.968;2023-03-03T12:56:47;33.23;;;15.83;;
6821;SDS011;3449;48.728;8.968;2023-03-03T12:59:22;35.07;;;17.93;;
6821;SDS011;3449;48.728;8.968;2023-03-03T13:01:58;36.07;;;16.00;;
6821;SDS011;3449;48.728;8.968;2023-03-03T13:04:33;31.00;;;15.90;;
6821;SDS011;3449;48.728;8.968;2023-03-03T13:07:05;29.20;;;16.23;;
6821;SDS011;3449;48.728;8.968;2023-03-03T13:09:41;36.63;;;16.13;;
6821;SDS011;3449;48.728;8.968;2023-03-03T13:12:33;29.60;;;14.27;;
6821;SDS011;3449;48.728;8.968;2023-03-03T13:15:11;31.42;;;16.92;;
6821;SDS011;3449;48.728;8.968;2023-03-03T13:17:42;34.20;;;16.70;;
6821;SDS011;3449;48.728;8.968;2023-03-03T13:20:20;35.73;;;16.50;;
6821;SDS011;3449;48.728;8.968;2023-03-03T13:22:53;31.03;;;15.23;;
6821;SDS011;3449;48.728;8.968;2023-03-03T13:25:32;32.50;;;15.20;;
6821;SDS011;3449;48.728;8.968;2023-03-03T13:28:06;30.30;;;15.27;;
6821;SDS011;3449;48.728;8.968;2023-03-03T13:30:45;32.67;;;17.17;;
6821;SDS011;3449;48.728;8.968;2023-03-03T13:33:15;34.50;;;17.00;;
6821;SDS011;3449;48.728;8.968;2023-03-03T13:35:49;30.33;;;15.17;;
6821;SDS011;3449;48.728;8.968;2023-03-03T13:38:20;33.00;;;16.90;;
6821;SDS011;3449;48.728;8.968;2023-03-03T13:40:49;32.90;;;16.00;;
6821;SDS011;3449;48.728;8.968;2023-03-03T13:43:23;29.70;;;15.43;;
6821;SDS011;3449;48.728;8.968;2023-03-03T13:45:58;31.33;;;16.77;;
6821;SDS011;3449;48.728;8.968;2023-03-03T13:48:36;33.30;;;15.20;;
6821;SDS011;3449;48.728;8.968;2023-03-03T13:51:36;30.57;;;15.73;;
6821;SDS011;3449;48.728;8.968;2023-03-03T13:54:11;34.67;;;16.07;;
6821;SDS011;3449;48.728;8.968;2023-03-03T13:56:51;38.60;;;17.00;;
6821;SDS011;3449;48.728;8.968;2023-03-03T13:59:34;31.50;;;14.97;;
6821;SDS011;3449;48.728;8.968;2023-03-03T14:02:15;37.53;;;16.63;;
6821;SDS011;3449;48.728;8.968;2023-03-03T14:04:53;30.57;;;15.10;;
6821;SDS011;3449;48.728;8.968;2023-03-03T14:07:26;29.70;;;15.30;;
6821;SDS011;3449;48.728;8.968;2023-03-03T14:10:02;30.30;;;17.90;;
6821;SDS011;3449;48.728;8.968;2023-03-03T14:12:37;30.33;;;16.13;;
6821;SDS011;3449;48.728;8.968;2023-03-03T14:15:10;28.73;;;15.13;;
6821;SDS011;3449;48.728;8.968;2023-03-03T14:17:54;33.10;;;16.77;;
6821;SDS011;3449;48.728;8.968;2023-03-03T14:20:52;33.80;;;16.20;;
6821;SDS011;3449;48.728;8.968;2023-03-03T14:23:21;35.80;;;15.80;;
6821;SDS011;3449;48.728;8.968;2023-03-03T14:25:53;33.07;;;16.37;;
6821;SDS011;3449;48.728;8.968;2023-03-03T14:28:24;31.37;;;16.43;;
6821;SDS011;3449;48.728;8.968;2023-03-03T14:30:52;29.37;;;14.20;;
6821;SDS011;3449;48.728;8.968;2023-03-03T14:33:26;27.63;;;15.50;;
6821;SDS011;3449;48.728;8.968;2023-03-03T14:36:00;31.87;;;17.40;;
6821;SDS011;3449;48.728;8.968;2023-03-03T14:38:37;36.43;;;16.90;;
6821;SDS011;3449;48.728;8.968;2023-03-03T14:41:11;32.90;;;15.83;;
6821;SDS011;3449;48.728;8.968;2023-03-03T14:43:41;27.53;;;15.67;;
6821;SDS011;3449;48.728;8.968;2023-03-03T14:49:01;40.60;;;17.40;;
6821;SDS011;3449;48.728;8.968;2023-03-03T14:51:32;36.23;;;17.70;;
6821;SDS011;3449;48.728;8.968;2023-03-03T14:54:07;38.63;;;16.60;;
6821;SDS011;3449;48.728;8.968;2023-03-03T14:56:39;30.03;;;16.60;;
6821;SDS011;3449;48.728;8.968;2023-03-03T14:59:22;35.83;;;18.27;;
6821;SDS011;3449;48.728;8.968;2023-03-03T15:01:55;37.87;;;17.60;;
6821;SDS011;3449;48.728;8.968;2023-03-03T15:04:27;35.53;;;16.67;;
6821;SDS011;3449;48.728;8.968;2023-03-03T15:06:55;34.83;;;17.20;;
6821;SDS011;3449;48.728;8.968;2023-03-03T15:09:28;35.13;;;18.37;;
6821;SDS011;3449;48.728;8.968;2023-03-03T15:12:01;33.07;;;17.80;;
6821;SDS011;3449;48.728;8.968;2023-03-03T15:14:42;35.80;;;17.10;;
6821;SDS011;3449;48.728;8.968;2023-03-03T15:17:16;38.77;;;17.60;;
6821;SDS011;3449;48.728;8.968;2023-03-03T15:19:52;33.20;;;16.03;;
6821;SDS011;3449;48.728;8.968;2023-03-03T15:22:43;35.27;;;16.70;;
6821;SDS011;3449;48.728;8.968;2023-03-03T15:25:14;39.30;;;17.67;;
6821;SDS011;3449;48.728;8.968;2023-03-03T15:27:46;39.83;;;17.30;;
6821;SDS011;3449;48.728;8.968;2023-03-03T15:30:19;33.37;;;15.23;;
6821;SDS011;3449;48.728;8.968;2023-03-03T15:32:55;41.43;;;17.00;;
6821;SDS011;3449;48.728;8.968;2023-03-03T15:35:33;39.40;;;17.83;;
6821;SDS011;3449;48.728;8.968;2023-03-03T15:38:09;35.03;;;17.10;;
6821;SDS011;3449;48.728;8.968;2023-03-03T15:40:48;39.30;;;16.47;;
6821;SDS011;3449;48.728;8.968;2023-03-03T15:43:21;37.07;;;17.87;;
6821;SDS011;3449;48.728;8.968;2023-03-03T15:45:56;38.00;;;17.50;;
6821;SDS011;3449;48.728;8.968;2023-03-03T15:48:34;32.17;;;16.83;;
6821;SDS011;3449;48.728;8.968;2023-03-03T15:51:15;40.37;;;17.83;;